Main page
METAR-TAF:

METAR-TAF

Airports :

Parma, Italy

Parma Airport

latitude: 44-49-17N, longitude: 010-17-41E, elevation: 50 m

Current weather observation

The report was made 8 hours and 36 minutes ago, at 19:50 UTC
Wind 3 kt from variable directions
Temperature 6°C
Humidity 93%
Pressure 1019 hPa
Visibility 10 km or more
no clouds below 1500 m and no cumulonimbus

METAR: LIMP 171950Z VRB03KT CAVOK 06/05 Q1019

Time: 05:26 (04:26 UTC)

Forecast

The report was made 11 hours and 26 minutes ago, at 17:00 UTC
Forecast valid from 17 at 18 UTC to 18 at 18 UTC
Wind 5 kt from variable directions
Visibility 10 km or more
no clouds below 1500 m and no cumulonimbus
Temporary
from 18 at 03 UTC to 18 at 08 UTC
Visibility: 3500 m
mist

TAF: LIMP 171700Z 1718/1818 VRB05KT CAVOK TEMPO 1803/1808 3500 BR

Weather observations and forecasts of more than 4000 airports (METAR and TAF reports).

The available stations are represented by yellow and red dots on the map.

Hover mouse over dot to see the name of the station.

Then click to see weather observations and forecasts.

To change the map : click on the green buttons with a black cross to zoom in, on the green button with a dash to zoom out, or on the green arrows for adjacent maps.


METAR-TAF: